Time;durP1;ratioP1;P1;durP2;ratioP2;P2;SDS_P1;SDS_P2;PMS_P1;PMS_P2;Temp;Humidity;BMP_temperature;BMP_pressure;BME280_temperature;BME280_humidity;BME280_pressure;Samples;Min_cycle;Max_cycle;Signal;HPM_P1;HPM_P2
2021/09/28 00:00:02;;;;;;;0.00;0.00;;;;;;;;;;4995379;28;20205;-67
2021/09/28 00:02:29;;;;;;;0.00;0.00;;;;;;;;;;4996920;28;20740;-67
2021/09/28 00:04:57;;;;;;;0.00;0.00;;;;;;;;;;5000056;28;20625;-67
2021/09/28 00:07:25;;;;;;;0.00;0.00;;;;;;;;;;4994586;28;20880;-68
2021/09/28 00:09:53;;;;;;;0.00;0.00;;;;;;;;;;4995668;28;20264;-68
2021/09/28 00:12:20;;;;;;;0.00;0.00;;;;;;;;;;4995212;28;20209;-66
2021/09/28 00:14:48;;;;;;;0.00;0.00;;;;;;;;;;4993923;28;20201;-66
2021/09/28 00:17:15;;;;;;;0.00;0.00;;;;;;;;;;4994218;28;20201;-66
2021/09/28 00:19:43;;;;;;;0.00;0.00;;;;;;;;;;4993034;28;20211;-68
2021/09/28 00:22:10;;;;;;;0.00;0.00;;;;;;;;;;4994671;28;20220;-66
2021/09/28 00:24:39;;;;;;;0.00;0.00;;;;;;;;;;4993106;28;20209;-66
2021/09/28 00:27:07;;;;;;;0.00;0.00;;;;;;;;;;4992570;28;20212;-67
2021/09/28 00:29:34;;;;;;;0.00;0.00;;;;;;;;;;4996602;28;20224;-66
2021/09/28 00:32:01;;;;;;;0.00;0.00;;;;;;;;;;4992671;28;20198;-68
2021/09/28 00:34:29;;;;;;;0.00;0.00;;;;;;;;;;4996975;28;20201;-68
2021/09/28 00:36:56;;;;;;;0.00;0.00;;;;;;;;;;5001355;28;20216;-66
2021/09/28 00:39:23;;;;;;;0.00;0.00;;;;;;;;;;4999737;28;20209;-66
2021/09/28 00:41:52;;;;;;;0.23;0.23;;;;;;;;;;4999018;28;20207;-69
2021/09/28 00:44:30;;;;;;;0.00;0.00;;;;;;;;;;5000636;28;20213;-66
2021/09/28 00:46:57;;;;;;;0.00;0.00;;;;;;;;;;4999502;28;20204;-66
2021/09/28 00:49:25;;;;;;;0.00;0.00;;;;;;;;;;4997871;28;20225;-66
2021/09/28 00:51:52;;;;;;;0.00;0.00;;;;;;;;;;4998695;28;20220;-67
2021/09/28 00:54:20;;;;;;;0.00;0.00;;;;;;;;;;4996675;28;20201;-66
2021/09/28 00:56:48;;;;;;;0.00;0.00;;;;;;;;;;4998545;28;20201;-67
2021/09/28 00:59:17;;;;;;;0.07;0.07;;;;;;;;;;4999803;28;20208;-66
2021/09/28 01:01:45;;;;;;;0.00;0.00;;;;;;;;;;5001631;28;20197;-67
2021/09/28 01:04:16;;;;;;;0.00;0.00;;;;;;;;;;5000885;28;20681;-66
2021/09/28 01:06:43;;;;;;;0.20;0.20;;;;;;;;;;4997084;28;20202;-65
2021/09/28 01:09:11;;;;;;;0.00;0.00;;;;;;;;;;4998543;28;20709;-67
2021/09/28 01:11:40;;;;;;;0.00;0.00;;;;;;;;;;4994633;28;20205;-67
2021/09/28 01:14:07;;;;;;;0.00;0.00;;;;;;;;;;4995297;28;20210;-67
2021/09/28 01:16:36;;;;;;;0.10;0.10;;;;;;;;;;4994153;28;20205;-67
2021/09/28 01:19:03;;;;;;;0.00;0.00;;;;;;;;;;4995233;28;20212;-66
2021/09/28 01:21:33;;;;;;;0.00;0.00;;;;;;;;;;4998021;28;21152;-66
2021/09/28 01:24:00;;;;;;;0.00;0.00;;;;;;;;;;4999146;28;20292;-66
2021/09/28 01:26:28;;;;;;;0.30;0.30;;;;;;;;;;4999623;28;20197;-66
2021/09/28 01:28:56;;;;;;;0.00;0.00;;;;;;;;;;4999173;28;20243;-65
2021/09/28 01:31:24;;;;;;;0.00;0.00;;;;;;;;;;4998545;28;20204;-66
2021/09/28 01:33:52;;;;;;;0.00;0.00;;;;;;;;;;4998956;28;20670;-67
2021/09/28 01:36:20;;;;;;;0.10;0.00;;;;;;;;;;4999723;28;20213;-67
2021/09/28 01:38:49;;;;;;;0.03;0.03;;;;;;;;;;4999433;28;20208;-68
2021/09/28 01:41:16;;;;;;;0.00;0.00;;;;;;;;;;4997291;28;20209;-68
2021/09/28 01:43:43;;;;;;;0.00;0.00;;;;;;;;;;4997621;28;20878;-66
2021/09/28 01:46:11;;;;;;;0.00;0.00;;;;;;;;;;4997385;28;20670;-66
2021/09/28 01:48:41;;;;;;;0.10;0.10;;;;;;;;;;4998661;28;20262;-66
2021/09/28 01:51:08;;;;;;;0.00;0.00;;;;;;;;;;5001065;28;20205;-66
2021/09/28 01:53:36;;;;;;;0.00;0.00;;;;;;;;;;5000226;28;20212;-66
2021/09/28 01:56:05;;;;;;;0.00;0.00;;;;;;;;;;4996749;28;20208;-66
2021/09/28 01:58:34;;;;;;;0.00;0.00;;;;;;;;;;4995907;28;20675;-66
2021/09/28 02:01:02;;;;;;;0.20;0.20;;;;;;;;;;4997269;28;20748;-67
2021/09/28 02:03:29;;;;;;;0.00;0.00;;;;;;;;;;4995868;28;20220;-67
2021/09/28 02:05:57;;;;;;;0.00;0.00;;;;;;;;;;4999361;28;20215;-66
2021/09/28 02:08:24;;;;;;;0.00;0.00;;;;;;;;;;4998095;28;20235;-66
2021/09/28 02:10:51;;;;;;;0.00;0.00;;;;;;;;;;4996722;28;20240;-67
2021/09/28 02:13:20;;;;;;;0.00;0.00;;;;;;;;;;4999551;28;20209;-66
2021/09/28 02:15:47;;;;;;;0.00;0.00;;;;;;;;;;4998879;28;20194;-66
2021/09/28 02:18:15;;;;;;;0.00;0.00;;;;;;;;;;4998302;28;20209;-66
2021/09/28 02:20:42;;;;;;;0.00;0.00;;;;;;;;;;4998061;28;20620;-67
2021/09/28 02:23:10;;;;;;;0.00;0.00;;;;;;;;;;4998736;28;20304;-65
2021/09/28 02:25:37;;;;;;;0.00;0.00;;;;;;;;;;4999196;28;20284;-66
2021/09/28 02:28:05;;;;;;;0.10;0.10;;;;;;;;;;4994789;28;20204;-66
2021/09/28 02:30:34;;;;;;;0.00;0.00;;;;;;;;;;4993625;28;20630;-67
2021/09/28 02:33:02;;;;;;;0.00;0.00;;;;;;;;;;4995316;28;20347;-66
2021/09/28 02:35:29;;;;;;;0.00;0.00;;;;;;;;;;4997195;28;20314;-66
2021/09/28 02:37:57;;;;;;;0.00;0.00;;;;;;;;;;4993040;28;20201;-66
2021/09/28 02:40:24;;;;;;;0.00;0.00;;;;;;;;;;4996349;28;20220;-66
2021/09/28 02:42:52;;;;;;;0.00;0.00;;;;;;;;;;4993459;28;20688;-66
2021/09/28 02:45:19;;;;;;;0.00;0.00;;;;;;;;;;4994350;28;20205;-67
2021/09/28 02:47:48;;;;;;;0.00;0.00;;;;;;;;;;4995893;28;20205;-67
2021/09/28 02:50:16;;;;;;;0.00;0.00;;;;;;;;;;4993928;28;20236;-67
2021/09/28 02:52:43;;;;;;;0.00;0.00;;;;;;;;;;4993689;28;20208;-66
2021/09/28 02:55:11;;;;;;;0.00;0.00;;;;;;;;;;4994567;28;20201;-67
2021/09/28 02:57:38;;;;;;;0.00;0.00;;;;;;;;;;4993552;28;22240;-68
2021/09/28 03:00:06;;;;;;;0.00;0.00;;;;;;;;;;4996546;28;20663;-67
2021/09/28 03:02:33;;;;;;;0.00;0.00;;;;;;;;;;4993765;28;20690;-68
2021/09/28 03:05:02;;;;;;;0.00;0.00;;;;;;;;;;4994258;28;22264;-66
2021/09/28 03:07:29;;;;;;;0.00;0.00;;;;;;;;;;4993619;28;20240;-65
2021/09/28 03:09:57;;;;;;;0.00;0.00;;;;;;;;;;4994468;28;20221;-66
2021/09/28 03:12:24;;;;;;;0.00;0.00;;;;;;;;;;4994526;28;20208;-66
2021/09/28 03:14:52;;;;;;;0.20;0.20;;;;;;;;;;4993232;28;20232;-66
2021/09/28 03:17:19;;;;;;;0.00;0.00;;;;;;;;;;4997775;28;20209;-68
2021/09/28 03:19:46;;;;;;;0.23;0.23;;;;;;;;;;4998274;28;20215;-65
2021/09/28 03:22:15;;;;;;;0.00;0.00;;;;;;;;;;4998743;28;20674;-67
2021/09/28 03:24:42;;;;;;;0.00;0.00;;;;;;;;;;4996939;28;20260;-67
2021/09/28 03:27:10;;;;;;;0.10;0.10;;;;;;;;;;4997300;28;20262;-67
2021/09/28 03:29:37;;;;;;;0.00;0.00;;;;;;;;;;4999399;28;20237;-69
2021/09/28 03:32:05;;;;;;;0.00;0.00;;;;;;;;;;4998443;28;20688;-68
2021/09/28 03:34:32;;;;;;;0.00;0.00;;;;;;;;;;5000301;28;20212;-67
2021/09/28 03:36:59;;;;;;;0.00;0.00;;;;;;;;;;5000302;28;20206;-67
2021/09/28 03:39:28;;;;;;;0.00;0.00;;;;;;;;;;4997616;28;20211;-68
2021/09/28 03:41:55;;;;;;;0.10;0.10;;;;;;;;;;4999126;28;20221;-66
2021/09/28 03:44:23;;;;;;;0.00;0.00;;;;;;;;;;4998038;28;20229;-66
2021/09/28 03:46:50;;;;;;;0.00;0.00;;;;;;;;;;4997526;28;20201;-67
2021/09/28 03:49:17;;;;;;;0.00;0.00;;;;;;;;;;4997693;28;20628;-68
2021/09/28 03:51:45;;;;;;;0.00;0.00;;;;;;;;;;4997537;28;20230;-67
2021/09/28 03:54:12;;;;;;;0.00;0.00;;;;;;;;;;4997531;28;20717;-66
2021/09/28 03:56:41;;;;;;;0.00;0.00;;;;;;;;;;4992952;28;20213;-67
2021/09/28 03:59:08;;;;;;;0.00;0.00;;;;;;;;;;4984968;28;20217;-67
2021/09/28 04:01:35;;;;;;;0.00;0.00;;;;;;;;;;4985844;28;20197;-69
2021/09/28 04:04:03;;;;;;;0.00;0.00;;;;;;;;;;4986746;28;20213;-68
2021/09/28 04:06:30;;;;;;;0.00;0.00;;;;;;;;;;4983625;28;20945;-68
2021/09/28 04:08:57;;;;;;;0.00;0.00;;;;;;;;;;4986662;28;20237;-67
2021/09/28 04:11:25;;;;;;;0.00;0.00;;;;;;;;;;4984149;28;20945;-68
2021/09/28 04:13:53;;;;;;;0.00;0.00;;;;;;;;;;4983508;28;21459;-68
2021/09/28 04:16:21;;;;;;;0.00;0.00;;;;;;;;;;4986489;28;20205;-67
2021/09/28 04:18:49;;;;;;;0.13;0.13;;;;;;;;;;4986204;28;20208;-66
2021/09/28 04:21:16;;;;;;;0.00;0.00;;;;;;;;;;4999957;28;20209;-66
2021/09/28 04:23:45;;;;;;;0.00;0.00;;;;;;;;;;5004614;28;20205;-67
2021/09/28 04:26:13;;;;;;;0.40;0.40;;;;;;;;;;4997160;28;20251;-67
2021/09/28 04:28:41;;;;;;;0.43;0.07;;;;;;;;;;4992919;28;20212;-67
2021/09/28 04:31:12;;;;;;;0.00;0.00;;;;;;;;;;4993010;28;22542;-68
2021/09/28 04:33:39;;;;;;;0.00;0.00;;;;;;;;;;4993130;28;20363;-69
2021/09/28 04:36:07;;;;;;;0.00;0.00;;;;;;;;;;4991627;28;20208;-69
2021/09/28 04:38:34;;;;;;;0.00;0.00;;;;;;;;;;4991459;28;20216;-67
2021/09/28 04:41:02;;;;;;;0.00;0.00;;;;;;;;;;4992272;28;20205;-67
2021/09/28 04:43:30;;;;;;;0.00;0.00;;;;;;;;;;4993152;28;20209;-67
2021/09/28 04:45:57;;;;;;;0.00;0.00;;;;;;;;;;4990305;28;20220;-68
2021/09/28 04:48:26;;;;;;;0.00;0.00;;;;;;;;;;4990519;28;20205;-69
2021/09/28 04:50:53;;;;;;;0.00;0.00;;;;;;;;;;4991587;28;20366;-67
2021/09/28 04:53:21;;;;;;;0.00;0.00;;;;;;;;;;4994403;28;20201;-68
2021/09/28 04:55:48;;;;;;;0.00;0.00;;;;;;;;;;4992397;28;20773;-67
2021/09/28 04:58:16;;;;;;;0.00;0.00;;;;;;;;;;4992137;28;20295;-67
2021/09/28 05:00:43;;;;;;;0.00;0.00;;;;;;;;;;4995112;28;20670;-67
2021/09/28 05:03:11;;;;;;;0.00;0.00;;;;;;;;;;4992079;28;20418;-69
2021/09/28 05:05:40;;;;;;;0.00;0.00;;;;;;;;;;4990804;28;20205;-67
2021/09/28 05:08:07;;;;;;;0.00;0.00;;;;;;;;;;4991269;28;20248;-67
2021/09/28 05:10:34;;;;;;;0.00;0.00;;;;;;;;;;4993507;28;20236;-66
2021/09/28 05:13:02;;;;;;;0.00;0.00;;;;;;;;;;4993949;28;20205;-68
2021/09/28 05:15:29;;;;;;;0.10;0.10;;;;;;;;;;4998350;28;20625;-67
2021/09/28 05:17:57;;;;;;;0.40;0.40;;;;;;;;;;5000906;28;20193;-66
2021/09/28 05:20:24;;;;;;;0.00;0.00;;;;;;;;;;4998511;28;20212;-67
2021/09/28 05:22:53;;;;;;;0.00;0.00;;;;;;;;;;4997887;28;20204;-68
2021/09/28 05:25:20;;;;;;;0.00;0.00;;;;;;;;;;4998176;28;20573;-67
2021/09/28 05:27:48;;;;;;;0.00;0.00;;;;;;;;;;4997994;28;20193;-66
2021/09/28 05:30:15;;;;;;;0.30;0.30;;;;;;;;;;4997170;28;20224;-67
2021/09/28 05:32:42;;;;;;;0.00;0.00;;;;;;;;;;5001669;28;20211;-67
2021/09/28 05:35:10;;;;;;;0.00;0.00;;;;;;;;;;5001064;28;20200;-67
2021/09/28 05:37:38;;;;;;;0.00;0.00;;;;;;;;;;4997683;28;20213;-67
2021/09/28 05:40:07;;;;;;;0.00;0.00;;;;;;;;;;4996417;28;20205;-67
2021/09/28 05:42:35;;;;;;;0.00;0.00;;;;;;;;;;4999731;28;20205;-67
2021/09/28 05:45:02;;;;;;;0.17;0.10;;;;;;;;;;4999180;28;20570;-67
2021/09/28 05:47:29;;;;;;;0.73;0.17;;;;;;;;;;5000597;28;20205;-67
2021/09/28 05:49:57;;;;;;;0.00;0.00;;;;;;;;;;4996348;28;20213;-66
2021/09/28 05:52:24;;;;;;;0.00;0.00;;;;;;;;;;4995737;28;20205;-67
2021/09/28 05:54:52;;;;;;;0.00;0.00;;;;;;;;;;4994379;28;20233;-67
2021/09/28 05:57:21;;;;;;;0.00;0.00;;;;;;;;;;4996433;28;20209;-66
2021/09/28 05:59:49;;;;;;;0.00;0.00;;;;;;;;;;4988072;28;20210;-67
2021/09/28 06:02:18;;;;;;;0.00;0.00;;;;;;;;;;4992612;28;20213;-67
2021/09/28 06:04:45;;;;;;;0.00;0.00;;;;;;;;;;4990579;28;20228;-65
2021/09/28 06:07:14;;;;;;;0.00;0.00;;;;;;;;;;4992110;28;20603;-65
2021/09/28 06:09:42;;;;;;;0.00;0.00;;;;;;;;;;4999825;28;20706;-64
2021/09/28 06:12:10;;;;;;;0.00;0.00;;;;;;;;;;4997634;28;20232;-64
2021/09/28 06:14:40;;;;;;;0.00;0.00;;;;;;;;;;4996844;28;20224;-66
2021/09/28 06:17:08;;;;;;;0.00;0.00;;;;;;;;;;4997556;28;20228;-67
2021/09/28 06:19:35;;;;;;;0.00;0.00;;;;;;;;;;4998514;28;20215;-67
2021/09/28 06:22:03;;;;;;;0.00;0.00;;;;;;;;;;5000073;28;20287;-68
2021/09/28 06:24:32;;;;;;;0.00;0.00;;;;;;;;;;4997325;28;20216;-66
2021/09/28 06:27:00;;;;;;;0.00;0.00;;;;;;;;;;4997523;28;20197;-67
2021/09/28 06:29:27;;;;;;;0.00;0.00;;;;;;;;;;4997926;28;20217;-67
2021/09/28 06:31:57;;;;;;;0.20;0.17;;;;;;;;;;5000313;28;20319;-67
2021/09/28 06:34:24;;;;;;;0.00;0.00;;;;;;;;;;4999769;28;20209;-67
2021/09/28 06:36:52;;;;;;;0.00;0.00;;;;;;;;;;4996114;28;20272;-67
2021/09/28 06:39:19;;;;;;;0.00;0.00;;;;;;;;;;4996603;28;20316;-67
2021/09/28 06:41:47;;;;;;;0.00;0.00;;;;;;;;;;5000974;28;20203;-67
2021/09/28 06:44:14;;;;;;;0.00;0.00;;;;;;;;;;4996347;28;20671;-67
2021/09/28 06:46:42;;;;;;;0.23;0.23;;;;;;;;;;4995886;28;20570;-66
2021/09/28 06:49:11;;;;;;;0.00;0.00;;;;;;;;;;4998194;28;20203;-66
2021/09/28 06:51:38;;;;;;;0.00;0.00;;;;;;;;;;4998480;28;20229;-66
2021/09/28 06:54:05;;;;;;;0.00;0.00;;;;;;;;;;4997085;28;20211;-69
2021/09/28 06:56:33;;;;;;;0.00;0.00;;;;;;;;;;4990967;28;20578;-66
2021/09/28 06:59:01;;;;;;;0.00;0.00;;;;;;;;;;4996998;28;20235;-66
2021/09/28 07:01:29;;;;;;;0.00;0.00;;;;;;;;;;4994898;28;20371;-66
2021/09/28 07:03:56;;;;;;;0.13;0.13;;;;;;;;;;5007281;28;20208;-66
2021/09/28 07:06:26;;;;;;;0.27;0.27;;;;;;;;;;5002129;28;20193;-66
2021/09/28 07:08:54;;;;;;;0.00;0.00;;;;;;;;;;4999951;28;20256;-67
2021/09/28 07:11:21;;;;;;;0.00;0.00;;;;;;;;;;4999179;28;20720;-70
2021/09/28 07:13:49;;;;;;;0.00;0.00;;;;;;;;;;5000925;28;20291;-66
2021/09/28 07:16:16;;;;;;;0.00;0.00;;;;;;;;;;4998890;28;20666;-66
2021/09/28 07:18:44;;;;;;;0.00;0.00;;;;;;;;;;4998991;28;20201;-67
2021/09/28 07:21:11;;;;;;;0.00;0.00;;;;;;;;;;4995427;28;20206;-67
2021/09/28 07:23:40;;;;;;;0.00;0.00;;;;;;;;;;4992534;28;20209;-67
2021/09/28 07:26:08;;;;;;;0.00;0.00;;;;;;;;;;4995906;28;20205;-67
2021/09/28 07:28:36;;;;;;;0.00;0.00;;;;;;;;;;4998469;28;20962;-67
2021/09/28 07:31:04;;;;;;;0.13;0.10;;;;;;;;;;4993182;28;20224;-66
2021/09/28 07:33:31;;;;;;;0.30;0.30;;;;;;;;;;5000249;28;20209;-66
2021/09/28 07:36:00;;;;;;;0.00;0.00;;;;;;;;;;4999934;28;20193;-68
2021/09/28 07:38:28;;;;;;;0.00;0.00;;;;;;;;;;4999164;28;20201;-68
2021/09/28 07:40:56;;;;;;;0.00;0.00;;;;;;;;;;5000080;28;20201;-67
2021/09/28 07:43:24;;;;;;;0.00;0.00;;;;;;;;;;4999773;28;20213;-68
2021/09/28 07:45:52;;;;;;;0.00;0.00;;;;;;;;;;5009248;28;20204;-66
2021/09/28 07:48:19;;;;;;;0.27;0.27;;;;;;;;;;5003925;28;20212;-67
2021/09/28 07:50:47;;;;;;;0.00;0.00;;;;;;;;;;5002961;28;20233;-66
2021/09/28 07:53:15;;;;;;;0.00;0.00;;;;;;;;;;5008254;28;20205;-67
2021/09/28 07:55:42;;;;;;;0.00;0.00;;;;;;;;;;5008915;28;20209;-67
2021/09/28 07:58:11;;;;;;;0.20;0.13;;;;;;;;;;5008977;28;20205;-66
2021/09/28 08:00:40;;;;;;;0.20;0.17;;;;;;;;;;5007496;28;20205;-65
2021/09/28 08:03:09;;;;;;;0.63;0.57;;;;;;;;;;4996304;28;20288;-66
2021/09/28 08:05:37;;;;;;;0.00;0.00;;;;;;;;;;4995532;28;20272;-68
2021/09/28 08:08:05;;;;;;;0.00;0.00;;;;;;;;;;4996517;28;20232;-67
2021/09/28 08:10:33;;;;;;;0.00;0.00;;;;;;;;;;4993698;28;20213;-67
2021/09/28 08:13:04;;;;;;;0.00;0.00;;;;;;;;;;4995760;28;20216;-66
2021/09/28 08:15:33;;;;;;;0.00;0.00;;;;;;;;;;4999569;28;20196;-66
2021/09/28 08:18:00;;;;;;;0.00;0.00;;;;;;;;;;4997167;28;20209;-69
2021/09/28 08:20:28;;;;;;;0.00;0.00;;;;;;;;;;4998031;28;20209;-67
2021/09/28 08:22:56;;;;;;;0.00;0.00;;;;;;;;;;4998804;28;20583;-67
2021/09/28 08:25:33;;;;;;;0.00;0.00;;;;;;;;;;4998071;28;20209;-67
2021/09/28 08:30:47;;;;;;;0.00;0.00;;;;;;;;;;4997154;28;20212;-68
2021/09/28 08:33:14;;;;;;;0.00;0.00;;;;;;;;;;4998706;28;20887;-66
2021/09/28 08:35:42;;;;;;;0.00;0.00;;;;;;;;;;4995252;28;20212;-67
2021/09/28 08:38:09;;;;;;;0.10;0.10;;;;;;;;;;4996079;28;20675;-67
2021/09/28 08:40:38;;;;;;;0.00;0.00;;;;;;;;;;4996558;28;20212;-67
2021/09/28 08:43:05;;;;;;;2.00;1.10;;;;;;;;;;4995347;28;20284;-68
2021/09/28 08:45:33;;;;;;;0.20;0.20;;;;;;;;;;4996033;28;20205;-67
2021/09/28 08:48:01;;;;;;;0.10;0.10;;;;;;;;;;4997256;28;20225;-68
2021/09/28 08:50:29;;;;;;;0.00;0.00;;;;;;;;;;4996866;28;20208;-69
2021/09/28 08:52:56;;;;;;;0.10;0.00;;;;;;;;;;4995546;28;20232;-66
2021/09/28 08:55:24;;;;;;;0.00;0.00;;;;;;;;;;4996390;28;20208;-67
2021/09/28 08:57:52;;;;;;;0.00;0.00;;;;;;;;;;4997978;28;20301;-66
2021/09/28 09:00:24;;;;;;;0.10;0.10;;;;;;;;;;4995134;28;20212;-66
2021/09/28 09:02:52;;;;;;;0.03;0.03;;;;;;;;;;4996812;28;20193;-66
2021/09/28 09:05:21;;;;;;;0.00;0.00;;;;;;;;;;4995553;28;20205;-65
2021/09/28 09:07:58;;;;;;;0.00;0.00;;;;;;;;;;4996571;28;20243;-67
2021/09/28 09:10:30;;;;;;;0.00;0.00;;;;;;;;;;4995365;28;20737;-66
2021/09/28 09:12:58;;;;;;;0.00;0.00;;;;;;;;;;4997831;28;20229;-67
2021/09/28 09:15:27;;;;;;;0.00;0.00;;;;;;;;;;5001172;28;21324;-67
2021/09/28 09:17:56;;;;;;;0.00;0.00;;;;;;;;;;4994533;28;20585;-67
2021/09/28 09:20:27;;;;;;;0.00;0.00;;;;;;;;;;4992598;28;20209;-67
2021/09/28 09:22:55;;;;;;;0.00;0.00;;;;;;;;;;4992427;28;20224;-70
2021/09/28 09:25:23;;;;;;;0.00;0.00;;;;;;;;;;4995521;28;20220;-67
2021/09/28 09:27:51;;;;;;;0.00;0.00;;;;;;;;;;4995366;28;20201;-65
2021/09/28 09:30:22;;;;;;;0.00;0.00;;;;;;;;;;5012208;28;20617;-66
2021/09/28 09:32:50;;;;;;;0.00;0.00;;;;;;;;;;4998381;28;20230;-67
2021/09/28 09:35:29;;;;;;;0.00;0.00;;;;;;;;;;5002276;28;20197;-67
2021/09/28 09:38:08;;;;;;;0.00;0.00;;;;;;;;;;5003740;28;20212;-66
2021/09/28 09:40:38;;;;;;;0.10;0.10;;;;;;;;;;5019890;28;20771;-66
2021/09/28 09:43:05;;;;;;;0.13;0.13;;;;;;;;;;5004840;28;20212;-67
2021/09/28 09:45:33;;;;;;;1.00;0.30;;;;;;;;;;5002154;28;20212;-67
2021/09/28 09:48:00;;;;;;;0.00;0.00;;;;;;;;;;5004915;28;20201;-67
2021/09/28 09:50:32;;;;;;;0.20;0.20;;;;;;;;;;5002505;28;20198;-67
2021/09/28 09:53:07;;;;;;;0.28;0.28;;;;;;;;;;5010481;28;20701;-66
2021/09/28 09:55:38;;;;;;;0.00;0.00;;;;;;;;;;5000143;28;20211;-67
2021/09/28 09:58:06;;;;;;;0.00;0.00;;;;;;;;;;5001322;28;20230;-67
2021/09/28 10:00:33;;;;;;;0.00;0.00;;;;;;;;;;5000956;28;20208;-68
2021/09/28 10:03:01;;;;;;;0.00;0.00;;;;;;;;;;5002217;28;20205;-67
2021/09/28 10:05:30;;;;;;;0.00;0.00;;;;;;;;;;5001085;28;20216;-70
2021/09/28 10:08:02;;;;;;;0.00;0.00;;;;;;;;;;5002307;28;22145;-67
2021/09/28 10:10:29;;;;;;;0.00;0.00;;;;;;;;;;4997222;28;20327;-67
2021/09/28 10:12:57;;;;;;;0.00;0.00;;;;;;;;;;4996531;28;20239;-66
2021/09/28 10:15:24;;;;;;;0.00;0.00;;;;;;;;;;4992072;28;20201;-67
2021/09/28 10:17:52;;;;;;;0.00;0.00;;;;;;;;;;4992340;28;20713;-68
2021/09/28 10:20:33;;;;;;;0.00;0.00;;;;;;;;;;4992386;28;21155;-67
2021/09/28 10:23:02;;;;;;;0.00;0.00;;;;;;;;;;4993808;28;20201;-70
2021/09/28 10:25:41;;;;;;;0.00;0.00;;;;;;;;;;4990204;28;20262;-68
2021/09/28 10:28:39;;;;;;;0.00;0.00;;;;;;;;;;4993140;28;20618;-69
2021/09/28 10:31:11;;;;;;;0.00;0.00;;;;;;;;;;4992328;28;20267;-68
2021/09/28 10:33:40;;;;;;;0.00;0.00;;;;;;;;;;4991817;28;20205;-67
2021/09/28 10:36:13;;;;;;;0.05;0.05;;;;;;;;;;4991686;28;20209;-70
2021/09/28 10:38:58;;;;;;;0.00;0.00;;;;;;;;;;4990535;28;20555;-69
2021/09/28 10:41:43;;;;;;;0.00;0.00;;;;;;;;;;4998901;28;20266;-69
2021/09/28 10:44:41;;;;;;;2.07;1.87;;;;;;;;;;4999840;28;20688;-68
2021/09/28 10:47:09;;;;;;;0.00;0.00;;;;;;;;;;4978555;28;20219;-69
2021/09/28 10:49:37;;;;;;;0.00;0.00;;;;;;;;;;5003452;28;20223;-67
2021/09/28 10:52:24;;;;;;;0.00;0.00;;;;;;;;;;5008292;28;20229;-69
2021/09/28 10:55:10;;;;;;;0.00;0.00;;;;;;;;;;4995229;28;20205;-67
2021/09/28 10:57:53;;;;;;;0.00;0.00;;;;;;;;;;4992541;28;20674;-68
2021/09/28 11:00:21;;;;;;;0.20;0.10;;;;;;;;;;4993882;28;20213;-67
2021/09/28 11:02:52;;;;;;;0.00;0.00;;;;;;;;;;4993928;28;20209;-68
2021/09/28 11:05:37;;;;;;;0.00;0.00;;;;;;;;;;4993353;28;20204;-69
2021/09/28 11:08:06;;;;;;;0.00;0.00;;;;;;;;;;4992009;28;20233;-67
2021/09/28 11:10:35;;;;;;;0.00;0.00;;;;;;;;;;4993355;28;20579;-67
2021/09/28 11:13:06;;;;;;;0.00;0.00;;;;;;;;;;4993553;28;20233;-67
2021/09/28 11:15:35;;;;;;;0.00;0.00;;;;;;;;;;4994039;28;20213;-68
2021/09/28 11:18:08;;;;;;;0.00;0.00;;;;;;;;;;4993524;28;20216;-68
2021/09/28 11:20:36;;;;;;;1.03;0.30;;;;;;;;;;4996906;28;20216;-67
2021/09/28 11:23:07;;;;;;;0.00;0.00;;;;;;;;;;4993387;28;20219;-67
2021/09/28 11:25:35;;;;;;;0.00;0.00;;;;;;;;;;4993573;28;20207;-67
2021/09/28 11:28:03;;;;;;;0.00;0.00;;;;;;;;;;4993287;28;20220;-68
2021/09/28 11:30:33;;;;;;;0.10;0.10;;;;;;;;;;4997050;28;20213;-68
2021/09/28 11:33:02;;;;;;;0.00;0.00;;;;;;;;;;4994061;28;20328;-67
2021/09/28 11:35:30;;;;;;;0.00;0.00;;;;;;;;;;4995368;28;20201;-68
2021/09/28 11:37:59;;;;;;;0.20;0.20;;;;;;;;;;4996524;28;20208;-67
2021/09/28 11:40:29;;;;;;;0.00;0.00;;;;;;;;;;4997583;28;20297;-67
2021/09/28 11:42:57;;;;;;;0.00;0.00;;;;;;;;;;4997867;28;20291;-68
2021/09/28 11:45:28;;;;;;;0.00;0.00;;;;;;;;;;4999907;28;20205;-67
2021/09/28 11:47:56;;;;;;;0.10;0.10;;;;;;;;;;5006410;28;20271;-67
2021/09/28 11:50:26;;;;;;;0.00;0.00;;;;;;;;;;5002985;28;20636;-68
2021/09/28 11:52:53;;;;;;;0.57;0.20;;;;;;;;;;5007279;28;20268;-68
2021/09/28 11:55:24;;;;;;;0.00;0.00;;;;;;;;;;4996492;28;20209;-68
2021/09/28 11:57:52;;;;;;;0.00;0.00;;;;;;;;;;4997382;28;20208;-68
2021/09/28 12:00:19;;;;;;;0.00;0.00;;;;;;;;;;5000667;28;20216;-68
2021/09/28 12:02:47;;;;;;;0.20;0.20;;;;;;;;;;4998894;28;20596;-67
2021/09/28 12:08:03;;;;;;;0.00;0.00;;;;;;;;;;4999585;28;20236;-68
2021/09/28 12:10:38;;;;;;;2.38;0.90;;;;;;;;;;4999035;28;20209;-67
2021/09/28 12:13:16;;;;;;;0.00;0.00;;;;;;;;;;5001111;28;20239;-67
2021/09/28 12:15:58;;;;;;;0.00;0.00;;;;;;;;;;5001512;28;20204;-68
2021/09/28 12:18:25;;;;;;;0.10;0.10;;;;;;;;;;4999182;28;20201;-67
2021/09/28 12:20:53;;;;;;;0.00;0.00;;;;;;;;;;5001143;28;20210;-68
2021/09/28 12:23:22;;;;;;;0.00;0.00;;;;;;;;;;4999404;28;20197;-70
2021/09/28 12:25:49;;;;;;;0.30;0.30;;;;;;;;;;4999474;28;20252;-67
2021/09/28 12:28:18;;;;;;;0.30;0.20;;;;;;;;;;4998698;28;20544;-68
2021/09/28 12:30:50;;;;;;;0.20;0.08;;;;;;;;;;4998914;28;20208;-68
2021/09/28 12:33:18;;;;;;;0.00;0.00;;;;;;;;;;5000836;28;20316;-68
2021/09/28 12:35:46;;;;;;;0.00;0.00;;;;;;;;;;5000311;28;20646;-69
2021/09/28 12:38:13;;;;;;;0.00;0.00;;;;;;;;;;4998008;28;20201;-69
2021/09/28 12:40:42;;;;;;;0.00;0.00;;;;;;;;;;5000444;28;20205;-68
2021/09/28 12:43:11;;;;;;;0.00;0.00;;;;;;;;;;4998409;28;20212;-68
2021/09/28 12:45:46;;;;;;;0.03;0.03;;;;;;;;;;4995262;28;20208;-69
2021/09/28 12:48:14;;;;;;;0.80;0.80;;;;;;;;;;4993565;28;20196;-69
2021/09/28 12:50:43;;;;;;;0.00;0.00;;;;;;;;;;4992125;28;20213;-68
2021/09/28 12:53:11;;;;;;;0.08;0.00;;;;;;;;;;4993746;28;20252;-70
2021/09/28 12:55:39;;;;;;;0.00;0.00;;;;;;;;;;4992791;28;20217;-69
2021/09/28 12:58:09;;;;;;;0.00;0.00;;;;;;;;;;4991393;28;20672;-69
2021/09/28 13:00:36;;;;;;;0.00;0.00;;;;;;;;;;4990903;28;20836;-70
2021/09/28 13:03:05;;;;;;;0.00;0.00;;;;;;;;;;4995419;28;20989;-68
2021/09/28 13:05:34;;;;;;;0.00;0.00;;;;;;;;;;4994887;28;20209;-68
2021/09/28 13:08:04;;;;;;;0.30;0.30;;;;;;;;;;4991508;28;20709;-69
2021/09/28 13:10:31;;;;;;;0.00;0.00;;;;;;;;;;4993489;28;20325;-69
2021/09/28 13:12:59;;;;;;;0.00;0.00;;;;;;;;;;4993407;28;20229;-69
2021/09/28 13:15:28;;;;;;;0.00;0.00;;;;;;;;;;4992003;28;20300;-68
2021/09/28 13:17:55;;;;;;;0.00;0.00;;;;;;;;;;4993342;28;20683;-70
2021/09/28 13:20:23;;;;;;;0.73;0.03;;;;;;;;;;4995832;28;20765;-70
2021/09/28 13:22:51;;;;;;;0.00;0.00;;;;;;;;;;4993292;28;20208;-68
2021/09/28 13:25:18;;;;;;;0.00;0.00;;;;;;;;;;4993145;28;20209;-69
2021/09/28 13:27:45;;;;;;;0.00;0.00;;;;;;;;;;4993193;28;20205;-68
2021/09/28 13:30:13;;;;;;;0.00;0.00;;;;;;;;;;4991762;28;20316;-68
2021/09/28 13:32:42;;;;;;;0.00;0.00;;;;;;;;;;4990597;28;20228;-68
2021/09/28 13:35:09;;;;;;;0.00;0.00;;;;;;;;;;4994432;28;20213;-70
2021/09/28 13:37:38;;;;;;;0.00;0.00;;;;;;;;;;4990809;28;20800;-69
2021/09/28 13:40:06;;;;;;;0.00;0.00;;;;;;;;;;4990414;28;20259;-67
2021/09/28 13:42:34;;;;;;;0.00;0.00;;;;;;;;;;4990328;28;20291;-68
2021/09/28 13:45:01;;;;;;;0.00;0.00;;;;;;;;;;4993459;28;20211;-70
2021/09/28 13:47:29;;;;;;;0.10;0.10;;;;;;;;;;4993880;28;20555;-70
2021/09/28 13:49:58;;;;;;;0.00;0.00;;;;;;;;;;4991664;28;20205;-68
2021/09/28 13:52:25;;;;;;;0.00;0.00;;;;;;;;;;4992128;28;20212;-69
2021/09/28 13:54:52;;;;;;;0.00;0.00;;;;;;;;;;4995663;28;20562;-66
2021/09/28 13:57:20;;;;;;;0.00;0.00;;;;;;;;;;4999379;28;20220;-68
2021/09/28 13:59:48;;;;;;;0.00;0.00;;;;;;;;;;4996242;28;20197;-67
2021/09/28 14:02:15;;;;;;;0.30;0.10;;;;;;;;;;4998782;28;20220;-67
2021/09/28 14:04:43;;;;;;;0.00;0.00;;;;;;;;;;4997647;28;20219;-67
2021/09/28 14:07:12;;;;;;;0.00;0.00;;;;;;;;;;4994679;28;20237;-67
2021/09/28 14:09:39;;;;;;;0.00;0.00;;;;;;;;;;4993257;28;21343;-66
2021/09/28 14:12:08;;;;;;;0.00;0.00;;;;;;;;;;4995811;28;20213;-66
2021/09/28 14:14:36;;;;;;;0.00;0.00;;;;;;;;;;4994419;28;20239;-66
2021/09/28 14:17:03;;;;;;;0.00;0.00;;;;;;;;;;4989892;28;20221;-68
2021/09/28 14:19:31;;;;;;;0.20;0.20;;;;;;;;;;4998037;28;20211;-66
2021/09/28 14:21:58;;;;;;;0.00;0.00;;;;;;;;;;5013227;28;20205;-68
2021/09/28 14:24:27;;;;;;;0.00;0.00;;;;;;;;;;4995703;28;20233;-69
2021/09/28 14:26:55;;;;;;;0.00;0.00;;;;;;;;;;4996379;28;21433;-71
2021/09/28 14:29:22;;;;;;;0.00;0.00;;;;;;;;;;5001281;28;20216;-68
2021/09/28 14:31:50;;;;;;;0.00;0.00;;;;;;;;;;4998379;28;20220;-68
2021/09/28 14:34:17;;;;;;;0.00;0.00;;;;;;;;;;5008346;28;20236;-68
2021/09/28 14:36:44;;;;;;;0.00;0.00;;;;;;;;;;5008659;28;20208;-66
2021/09/28 14:39:12;;;;;;;0.00;0.00;;;;;;;;;;4998594;28;20197;-69
2021/09/28 14:41:41;;;;;;;0.05;0.05;;;;;;;;;;4999144;28;20209;-69
2021/09/28 14:44:09;;;;;;;0.20;0.20;;;;;;;;;;4990012;28;20213;-67
2021/09/28 14:46:36;;;;;;;0.00;0.00;;;;;;;;;;4991185;28;20201;-69
2021/09/28 14:49:04;;;;;;;0.00;0.00;;;;;;;;;;4990227;28;20881;-66
2021/09/28 14:51:39;;;;;;;0.00;0.00;;;;;;;;;;5011648;28;20220;-65
2021/09/28 14:54:10;;;;;;;0.10;0.10;;;;;;;;;;5014412;28;20224;-67
2021/09/28 14:56:45;;;;;;;0.75;0.28;;;;;;;;;;5013726;28;20737;-67